sensor_id;sensor_type;location;lat;lon;timestamp;P1;durP1;ratioP1;P2;durP2;ratioP2
36315;SDS011;22343;50.820;2.666;2023-02-12T00:01:54;35.77;;;27.40;;
36315;SDS011;22343;50.820;2.666;2023-02-12T00:04:38;38.33;;;27.87;;
36315;SDS011;22343;50.820;2.666;2023-02-12T00:07:23;33.33;;;27.43;;
36315;SDS011;22343;50.820;2.666;2023-02-12T00:10:08;34.63;;;27.70;;
36315;SDS011;22343;50.820;2.666;2023-02-12T00:12:53;37.80;;;28.33;;
36315;SDS011;22343;50.820;2.666;2023-02-12T00:15:38;37.50;;;27.63;;
36315;SDS011;22343;50.820;2.666;2023-02-12T00:18:23;34.87;;;26.87;;
36315;SDS011;22343;50.820;2.666;2023-02-12T00:21:07;38.07;;;27.70;;
36315;SDS011;22343;50.820;2.666;2023-02-12T00:23:52;40.13;;;29.77;;
36315;SDS011;22343;50.820;2.666;2023-02-12T00:26:36;43.50;;;30.87;;
36315;SDS011;22343;50.820;2.666;2023-02-12T00:29:20;49.90;;;35.87;;
36315;SDS011;22343;50.820;2.666;2023-02-12T00:32:05;45.50;;;32.37;;
36315;SDS011;22343;50.820;2.666;2023-02-12T00:34:50;40.10;;;29.83;;
36315;SDS011;22343;50.820;2.666;2023-02-12T00:37:34;54.60;;;38.20;;
36315;SDS011;22343;50.820;2.666;2023-02-12T00:40:18;64.00;;;43.87;;
36315;SDS011;22343;50.820;2.666;2023-02-12T00:43:03;46.60;;;31.17;;
36315;SDS011;22343;50.820;2.666;2023-02-12T00:45:47;40.10;;;29.73;;
36315;SDS011;22343;50.820;2.666;2023-02-12T00:48:32;61.57;;;38.80;;
36315;SDS011;22343;50.820;2.666;2023-02-12T00:51:17;60.90;;;41.10;;
36315;SDS011;22343;50.820;2.666;2023-02-12T00:54:02;58.53;;;42.30;;
36315;SDS011;22343;50.820;2.666;2023-02-12T00:56:47;71.80;;;46.93;;
36315;SDS011;22343;50.820;2.666;2023-02-12T00:59:31;77.67;;;48.60;;
36315;SDS011;22343;50.820;2.666;2023-02-12T01:02:19;52.67;;;37.53;;
36315;SDS011;22343;50.820;2.666;2023-02-12T01:05:03;101.53;;;63.97;;
36315;SDS011;22343;50.820;2.666;2023-02-12T01:07:48;65.73;;;44.73;;
36315;SDS011;22343;50.820;2.666;2023-02-12T01:10:36;108.37;;;65.43;;
36315;SDS011;22343;50.820;2.666;2023-02-12T01:13:21;69.00;;;45.43;;
36315;SDS011;22343;50.820;2.666;2023-02-12T01:16:07;53.83;;;36.53;;
36315;SDS011;22343;50.820;2.666;2023-02-12T01:18:56;80.87;;;48.13;;
36315;SDS011;22343;50.820;2.666;2023-02-12T01:21:40;80.90;;;48.73;;
36315;SDS011;22343;50.820;2.666;2023-02-12T01:24:25;68.17;;;43.67;;
36315;SDS011;22343;50.820;2.666;2023-02-12T01:27:09;73.13;;;45.70;;
36315;SDS011;22343;50.820;2.666;2023-02-12T01:29:53;45.47;;;31.93;;
36315;SDS011;22343;50.820;2.666;2023-02-12T01:32:38;38.43;;;28.60;;
36315;SDS011;22343;50.820;2.666;2023-02-12T01:35:22;37.43;;;27.93;;
36315;SDS011;22343;50.820;2.666;2023-02-12T01:38:06;36.83;;;26.70;;
36315;SDS011;22343;50.820;2.666;2023-02-12T01:40:51;36.13;;;26.40;;
36315;SDS011;22343;50.820;2.666;2023-02-12T01:43:35;68.73;;;46.00;;
36315;SDS011;22343;50.820;2.666;2023-02-12T01:46:20;53.77;;;37.30;;
36315;SDS011;22343;50.820;2.666;2023-02-12T01:49:06;53.73;;;38.30;;
36315;SDS011;22343;50.820;2.666;2023-02-12T01:51:55;42.30;;;29.33;;
36315;SDS011;22343;50.820;2.666;2023-02-12T01:54:43;40.40;;;27.90;;
36315;SDS011;22343;50.820;2.666;2023-02-12T01:57:28;37.93;;;28.03;;
36315;SDS011;22343;50.820;2.666;2023-02-12T02:00:19;36.53;;;26.30;;
36315;SDS011;22343;50.820;2.666;2023-02-12T02:03:06;37.43;;;27.37;;
36315;SDS011;22343;50.820;2.666;2023-02-12T02:05:53;48.77;;;30.70;;
36315;SDS011;22343;50.820;2.666;2023-02-12T02:08:40;38.50;;;28.30;;
36315;SDS011;22343;50.820;2.666;2023-02-12T02:11:24;46.90;;;33.80;;
36315;SDS011;22343;50.820;2.666;2023-02-12T02:14:28;38.53;;;28.77;;
36315;SDS011;22343;50.820;2.666;2023-02-12T02:20:48;38.33;;;27.93;;
36315;SDS011;22343;50.820;2.666;2023-02-12T02:29:40;34.00;;;24.67;;
36315;SDS011;22343;50.820;2.666;2023-02-12T02:41:37;34.60;;;25.23;;
36315;SDS011;22343;50.820;2.666;2023-02-12T02:44:27;33.73;;;23.83;;
36315;SDS011;22343;50.820;2.666;2023-02-12T02:47:16;31.37;;;23.37;;
36315;SDS011;22343;50.820;2.666;2023-02-12T02:50:11;32.73;;;24.17;;
36315;SDS011;22343;50.820;2.666;2023-02-12T02:53:02;34.60;;;23.87;;
36315;SDS011;22343;50.820;2.666;2023-02-12T02:55:50;32.90;;;24.23;;
36315;SDS011;22343;50.820;2.666;2023-02-12T02:58:46;32.33;;;23.63;;
36315;SDS011;22343;50.820;2.666;2023-02-12T03:01:42;33.40;;;23.63;;
36315;SDS011;22343;50.820;2.666;2023-02-12T03:04:32;32.07;;;23.50;;
36315;SDS011;22343;50.820;2.666;2023-02-12T03:10:10;32.10;;;23.23;;
36315;SDS011;22343;50.820;2.666;2023-02-12T03:13:13;32.17;;;21.80;;
36315;SDS011;22343;50.820;2.666;2023-02-12T03:16:08;30.10;;;21.90;;
36315;SDS011;22343;50.820;2.666;2023-02-12T03:21:54;30.57;;;21.07;;
36315;SDS011;22343;50.820;2.666;2023-02-12T03:24:45;30.03;;;22.37;;
36315;SDS011;22343;50.820;2.666;2023-02-12T03:27:34;30.37;;;22.00;;
36315;SDS011;22343;50.820;2.666;2023-02-12T03:30:21;31.77;;;22.50;;
36315;SDS011;22343;50.820;2.666;2023-02-12T03:40:02;29.83;;;19.50;;
36315;SDS011;22343;50.820;2.666;2023-02-12T03:43:03;26.83;;;18.97;;
36315;SDS011;22343;50.820;2.666;2023-02-12T03:45:59;27.17;;;18.50;;
36315;SDS011;22343;50.820;2.666;2023-02-12T03:48:51;24.93;;;18.47;;
36315;SDS011;22343;50.820;2.666;2023-02-12T03:51:47;22.23;;;16.70;;
36315;SDS011;22343;50.820;2.666;2023-02-12T03:54:32;25.87;;;17.40;;
36315;SDS011;22343;50.820;2.666;2023-02-12T03:57:20;24.43;;;17.17;;
36315;SDS011;22343;50.820;2.666;2023-02-12T04:00:10;24.23;;;16.47;;
36315;SDS011;22343;50.820;2.666;2023-02-12T04:02:57;23.40;;;16.40;;
36315;SDS011;22343;50.820;2.666;2023-02-12T04:05:42;22.00;;;16.00;;
36315;SDS011;22343;50.820;2.666;2023-02-12T04:08:26;22.47;;;16.50;;
36315;SDS011;22343;50.820;2.666;2023-02-12T04:11:25;21.83;;;16.37;;
36315;SDS011;22343;50.820;2.666;2023-02-12T04:20:41;27.70;;;17.93;;
36315;SDS011;22343;50.820;2.666;2023-02-12T04:29:24;27.13;;;16.17;;
36315;SDS011;22343;50.820;2.666;2023-02-12T04:35:48;25.80;;;19.87;;
36315;SDS011;22343;50.820;2.666;2023-02-12T04:38:37;23.90;;;17.37;;
36315;SDS011;22343;50.820;2.666;2023-02-12T04:41:29;21.47;;;16.10;;
36315;SDS011;22343;50.820;2.666;2023-02-12T04:44:19;23.47;;;15.87;;
36315;SDS011;22343;50.820;2.666;2023-02-12T04:47:07;23.33;;;16.43;;
36315;SDS011;22343;50.820;2.666;2023-02-12T04:49:53;24.00;;;16.63;;
36315;SDS011;22343;50.820;2.666;2023-02-12T04:52:37;23.93;;;16.30;;
36315;SDS011;22343;50.820;2.666;2023-02-12T04:55:22;22.97;;;16.63;;
36315;SDS011;22343;50.820;2.666;2023-02-12T04:58:06;23.00;;;16.13;;
36315;SDS011;22343;50.820;2.666;2023-02-12T05:00:52;24.13;;;16.23;;
36315;SDS011;22343;50.820;2.666;2023-02-12T05:03:36;23.53;;;16.17;;
36315;SDS011;22343;50.820;2.666;2023-02-12T05:06:21;21.43;;;15.67;;
36315;SDS011;22343;50.820;2.666;2023-02-12T05:09:05;21.33;;;14.43;;
36315;SDS011;22343;50.820;2.666;2023-02-12T05:11:51;18.73;;;12.83;;
36315;SDS011;22343;50.820;2.666;2023-02-12T05:14:35;19.80;;;12.50;;
36315;SDS011;22343;50.820;2.666;2023-02-12T05:17:23;17.60;;;11.90;;
36315;SDS011;22343;50.820;2.666;2023-02-12T05:20:08;19.83;;;12.40;;
36315;SDS011;22343;50.820;2.666;2023-02-12T05:22:53;19.10;;;12.03;;
36315;SDS011;22343;50.820;2.666;2023-02-12T05:25:38;18.97;;;13.20;;
36315;SDS011;22343;50.820;2.666;2023-02-12T05:28:23;19.67;;;13.97;;
36315;SDS011;22343;50.820;2.666;2023-02-12T05:31:08;24.87;;;17.77;;
36315;SDS011;22343;50.820;2.666;2023-02-12T05:33:54;22.90;;;17.37;;
36315;SDS011;22343;50.820;2.666;2023-02-12T05:36:38;21.87;;;15.53;;
36315;SDS011;22343;50.820;2.666;2023-02-12T05:39:23;20.20;;;14.87;;
36315;SDS011;22343;50.820;2.666;2023-02-12T05:42:07;24.03;;;16.27;;
36315;SDS011;22343;50.820;2.666;2023-02-12T05:44:51;20.07;;;14.00;;
36315;SDS011;22343;50.820;2.666;2023-02-12T05:47:36;21.47;;;14.67;;
36315;SDS011;22343;50.820;2.666;2023-02-12T05:50:20;21.47;;;15.90;;
36315;SDS011;22343;50.820;2.666;2023-02-12T05:53:05;22.03;;;16.43;;
36315;SDS011;22343;50.820;2.666;2023-02-12T05:55:49;24.03;;;17.10;;
36315;SDS011;22343;50.820;2.666;2023-02-12T05:58:34;30.30;;;23.30;;
36315;SDS011;22343;50.820;2.666;2023-02-12T06:01:23;23.20;;;17.37;;
36315;SDS011;22343;50.820;2.666;2023-02-12T06:04:12;19.73;;;14.60;;
36315;SDS011;22343;50.820;2.666;2023-02-12T06:07:01;21.90;;;14.60;;
36315;SDS011;22343;50.820;2.666;2023-02-12T06:09:45;20.87;;;14.90;;
36315;SDS011;22343;50.820;2.666;2023-02-12T06:12:30;25.43;;;18.80;;
36315;SDS011;22343;50.820;2.666;2023-02-12T06:15:14;23.03;;;16.57;;
36315;SDS011;22343;50.820;2.666;2023-02-12T06:17:58;20.27;;;14.93;;
36315;SDS011;22343;50.820;2.666;2023-02-12T06:20:43;21.57;;;17.23;;
36315;SDS011;22343;50.820;2.666;2023-02-12T06:23:27;22.40;;;16.37;;
36315;SDS011;22343;50.820;2.666;2023-02-12T06:26:11;20.63;;;15.40;;
36315;SDS011;22343;50.820;2.666;2023-02-12T06:28:56;20.60;;;14.80;;
36315;SDS011;22343;50.820;2.666;2023-02-12T06:31:40;19.07;;;14.47;;
36315;SDS011;22343;50.820;2.666;2023-02-12T06:34:25;20.83;;;14.73;;
36315;SDS011;22343;50.820;2.666;2023-02-12T06:37:10;20.17;;;14.77;;
36315;SDS011;22343;50.820;2.666;2023-02-12T06:39:55;22.90;;;15.60;;
36315;SDS011;22343;50.820;2.666;2023-02-12T06:42:39;21.93;;;15.63;;
36315;SDS011;22343;50.820;2.666;2023-02-12T06:45:23;20.40;;;15.43;;
36315;SDS011;22343;50.820;2.666;2023-02-12T06:48:08;21.63;;;15.27;;
36315;SDS011;22343;50.820;2.666;2023-02-12T06:50:52;20.20;;;15.00;;
36315;SDS011;22343;50.820;2.666;2023-02-12T06:53:36;22.67;;;15.77;;
36315;SDS011;22343;50.820;2.666;2023-02-12T06:56:21;21.17;;;15.13;;
36315;SDS011;22343;50.820;2.666;2023-02-12T06:59:09;20.73;;;15.90;;
36315;SDS011;22343;50.820;2.666;2023-02-12T07:01:56;20.33;;;15.83;;
36315;SDS011;22343;50.820;2.666;2023-02-12T07:04:40;22.43;;;17.20;;
36315;SDS011;22343;50.820;2.666;2023-02-12T07:07:25;21.53;;;17.20;;
36315;SDS011;22343;50.820;2.666;2023-02-12T07:10:09;28.87;;;20.73;;
36315;SDS011;22343;50.820;2.666;2023-02-12T07:12:54;24.03;;;18.33;;
36315;SDS011;22343;50.820;2.666;2023-02-12T07:15:38;21.37;;;15.23;;
36315;SDS011;22343;50.820;2.666;2023-02-12T07:18:23;21.17;;;15.37;;
36315;SDS011;22343;50.820;2.666;2023-02-12T07:21:08;20.40;;;15.80;;
36315;SDS011;22343;50.820;2.666;2023-02-12T07:23:52;22.63;;;15.60;;
36315;SDS011;22343;50.820;2.666;2023-02-12T07:26:38;19.73;;;15.30;;
36315;SDS011;22343;50.820;2.666;2023-02-12T07:29:23;19.20;;;15.00;;
36315;SDS011;22343;50.820;2.666;2023-02-12T07:32:08;23.30;;;16.43;;
36315;SDS011;22343;50.820;2.666;2023-02-12T07:34:54;22.37;;;16.17;;
36315;SDS011;22343;50.820;2.666;2023-02-12T07:37:38;21.20;;;14.93;;
36315;SDS011;22343;50.820;2.666;2023-02-12T07:40:23;18.07;;;13.97;;
36315;SDS011;22343;50.820;2.666;2023-02-12T07:43:08;19.47;;;14.03;;
36315;SDS011;22343;50.820;2.666;2023-02-12T07:45:54;19.57;;;14.23;;
36315;SDS011;22343;50.820;2.666;2023-02-12T07:48:39;19.83;;;14.67;;
36315;SDS011;22343;50.820;2.666;2023-02-12T07:51:24;20.07;;;15.10;;
36315;SDS011;22343;50.820;2.666;2023-02-12T07:54:10;20.77;;;14.40;;
36315;SDS011;22343;50.820;2.666;2023-02-12T07:56:56;19.53;;;14.67;;
36315;SDS011;22343;50.820;2.666;2023-02-12T07:59:41;23.03;;;15.93;;
36315;SDS011;22343;50.820;2.666;2023-02-12T08:02:27;20.40;;;15.20;;
36315;SDS011;22343;50.820;2.666;2023-02-12T08:05:11;20.30;;;15.50;;
36315;SDS011;22343;50.820;2.666;2023-02-12T08:07:55;20.27;;;15.93;;
36315;SDS011;22343;50.820;2.666;2023-02-12T08:10:39;20.60;;;15.23;;
36315;SDS011;22343;50.820;2.666;2023-02-12T08:13:24;22.13;;;17.00;;
36315;SDS011;22343;50.820;2.666;2023-02-12T08:16:12;22.87;;;17.20;;
36315;SDS011;22343;50.820;2.666;2023-02-12T08:19:01;23.17;;;16.20;;
36315;SDS011;22343;50.820;2.666;2023-02-12T08:21:48;20.37;;;15.93;;
36315;SDS011;22343;50.820;2.666;2023-02-12T08:24:36;23.63;;;16.13;;
36315;SDS011;22343;50.820;2.666;2023-02-12T08:27:20;21.80;;;15.83;;
36315;SDS011;22343;50.820;2.666;2023-02-12T08:30:05;21.37;;;15.87;;
36315;SDS011;22343;50.820;2.666;2023-02-12T08:32:51;23.20;;;15.13;;
36315;SDS011;22343;50.820;2.666;2023-02-12T08:35:35;21.47;;;16.27;;
36315;SDS011;22343;50.820;2.666;2023-02-12T08:38:19;31.30;;;20.30;;
36315;SDS011;22343;50.820;2.666;2023-02-12T08:41:05;33.83;;;22.30;;
36315;SDS011;22343;50.820;2.666;2023-02-12T08:43:52;28.70;;;18.97;;
36315;SDS011;22343;50.820;2.666;2023-02-12T08:46:41;26.87;;;19.43;;
36315;SDS011;22343;50.820;2.666;2023-02-12T08:49:29;28.57;;;20.43;;
36315;SDS011;22343;50.820;2.666;2023-02-12T08:52:13;30.53;;;24.63;;
36315;SDS011;22343;50.820;2.666;2023-02-12T08:54:58;42.37;;;29.67;;
36315;SDS011;22343;50.820;2.666;2023-02-12T08:57:42;35.77;;;25.20;;
36315;SDS011;22343;50.820;2.666;2023-02-12T09:00:27;27.40;;;19.97;;
36315;SDS011;22343;50.820;2.666;2023-02-12T09:03:11;29.40;;;22.53;;
36315;SDS011;22343;50.820;2.666;2023-02-12T09:05:55;28.90;;;21.37;;
36315;SDS011;22343;50.820;2.666;2023-02-12T09:08:41;21.20;;;15.87;;
36315;SDS011;22343;50.820;2.666;2023-02-12T09:11:28;20.73;;;15.20;;
36315;SDS011;22343;50.820;2.666;2023-02-12T09:14:16;32.87;;;20.93;;
36315;SDS011;22343;50.820;2.666;2023-02-12T09:17:01;31.30;;;21.23;;
36315;SDS011;22343;50.820;2.666;2023-02-12T09:19:46;25.87;;;17.33;;
36315;SDS011;22343;50.820;2.666;2023-02-12T09:22:30;22.67;;;15.63;;
36315;SDS011;22343;50.820;2.666;2023-02-12T09:25:15;26.37;;;18.93;;
36315;SDS011;22343;50.820;2.666;2023-02-12T09:28:00;27.60;;;19.37;;
36315;SDS011;22343;50.820;2.666;2023-02-12T09:30:45;28.20;;;19.17;;
36315;SDS011;22343;50.820;2.666;2023-02-12T09:33:30;26.70;;;16.87;;
36315;SDS011;22343;50.820;2.666;2023-02-12T09:36:16;22.63;;;15.60;;
36315;SDS011;22343;50.820;2.666;2023-02-12T09:39:01;27.67;;;18.47;;
36315;SDS011;22343;50.820;2.666;2023-02-12T09:45:19;24.17;;;18.10;;
36315;SDS011;22343;50.820;2.666;2023-02-12T09:48:10;26.60;;;20.23;;
36315;SDS011;22343;50.820;2.666;2023-02-12T09:51:06;24.90;;;18.07;;
36315;SDS011;22343;50.820;2.666;2023-02-12T09:53:55;22.70;;;16.73;;
36315;SDS011;22343;50.820;2.666;2023-02-12T09:56:49;26.23;;;17.83;;
36315;SDS011;22343;50.820;2.666;2023-02-12T09:59:44;22.70;;;16.43;;
36315;SDS011;22343;50.820;2.666;2023-02-12T10:03:02;22.77;;;16.50;;
36315;SDS011;22343;50.820;2.666;2023-02-12T10:14:43;54.80;;;33.47;;
36315;SDS011;22343;50.820;2.666;2023-02-12T10:21:15;67.20;;;43.70;;
36315;SDS011;22343;50.820;2.666;2023-02-12T10:27:12;33.37;;;23.63;;
36315;SDS011;22343;50.820;2.666;2023-02-12T10:29:59;36.57;;;27.40;;
36315;SDS011;22343;50.820;2.666;2023-02-12T10:32:50;39.50;;;26.60;;
36315;SDS011;22343;50.820;2.666;2023-02-12T10:39:36;24.63;;;18.50;;
36315;SDS011;22343;50.820;2.666;2023-02-12T10:45:38;25.30;;;18.90;;
36315;SDS011;22343;50.820;2.666;2023-02-12T10:57:36;29.03;;;20.20;;
36315;SDS011;22343;50.820;2.666;2023-02-12T11:00:26;24.60;;;18.20;;
36315;SDS011;22343;50.820;2.666;2023-02-12T11:06:12;23.20;;;17.43;;
36315;SDS011;22343;50.820;2.666;2023-02-12T11:09:00;26.23;;;18.80;;
36315;SDS011;22343;50.820;2.666;2023-02-12T11:11:45;27.70;;;20.43;;
36315;SDS011;22343;50.820;2.666;2023-02-12T11:14:32;24.77;;;18.27;;
36315;SDS011;22343;50.820;2.666;2023-02-12T11:17:23;26.23;;;20.03;;
36315;SDS011;22343;50.820;2.666;2023-02-12T11:29:16;28.87;;;20.67;;
36315;SDS011;22343;50.820;2.666;2023-02-12T11:32:04;29.50;;;18.93;;
36315;SDS011;22343;50.820;2.666;2023-02-12T11:35:05;26.87;;;20.40;;
36315;SDS011;22343;50.820;2.666;2023-02-12T11:38:00;25.00;;;18.03;;
36315;SDS011;22343;50.820;2.666;2023-02-12T11:40:45;27.30;;;19.23;;
36315;SDS011;22343;50.820;2.666;2023-02-12T11:43:30;30.90;;;22.60;;
36315;SDS011;22343;50.820;2.666;2023-02-12T11:46:24;25.27;;;18.93;;
36315;SDS011;22343;50.820;2.666;2023-02-12T11:49:14;25.60;;;17.67;;
36315;SDS011;22343;50.820;2.666;2023-02-12T11:52:04;27.53;;;19.30;;
36315;SDS011;22343;50.820;2.666;2023-02-12T11:54:51;24.80;;;18.60;;
36315;SDS011;22343;50.820;2.666;2023-02-12T11:57:44;25.60;;;18.90;;
36315;SDS011;22343;50.820;2.666;2023-02-12T12:00:39;24.67;;;18.00;;
36315;SDS011;22343;50.820;2.666;2023-02-12T12:06:54;25.77;;;18.60;;
36315;SDS011;22343;50.820;2.666;2023-02-12T12:10:04;25.87;;;18.60;;
36315;SDS011;22343;50.820;2.666;2023-02-12T12:12:55;23.40;;;16.87;;
36315;SDS011;22343;50.820;2.666;2023-02-12T12:15:48;23.77;;;16.80;;
36315;SDS011;22343;50.820;2.666;2023-02-12T12:18:58;23.03;;;15.63;;
36315;SDS011;22343;50.820;2.666;2023-02-12T12:25:07;24.73;;;17.13;;
36315;SDS011;22343;50.820;2.666;2023-02-12T12:31:09;29.57;;;20.63;;
36315;SDS011;22343;50.820;2.666;2023-02-12T12:34:21;30.80;;;21.80;;
36315;SDS011;22343;50.820;2.666;2023-02-12T13:14:52;18.13;;;12.77;;
36315;SDS011;22343;50.820;2.666;2023-02-12T13:17:42;24.00;;;15.70;;
36315;SDS011;22343;50.820;2.666;2023-02-12T13:20:48;20.47;;;14.37;;
36315;SDS011;22343;50.820;2.666;2023-02-12T13:23:41;19.87;;;14.70;;
36315;SDS011;22343;50.820;2.666;2023-02-12T13:33:19;22.53;;;14.57;;
36315;SDS011;22343;50.820;2.666;2023-02-12T13:36:09;21.20;;;13.80;;
36315;SDS011;22343;50.820;2.666;2023-02-12T13:39:00;23.40;;;15.93;;
36315;SDS011;22343;50.820;2.666;2023-02-12T13:41:52;27.50;;;19.10;;
36315;SDS011;22343;50.820;2.666;2023-02-12T13:51:07;21.27;;;14.23;;
36315;SDS011;22343;50.820;2.666;2023-02-12T13:57:34;18.20;;;12.57;;
36315;SDS011;22343;50.820;2.666;2023-02-12T14:03:34;30.57;;;19.13;;
36315;SDS011;22343;50.820;2.666;2023-02-12T14:06:20;24.07;;;15.63;;
36315;SDS011;22343;50.820;2.666;2023-02-12T14:09:08;17.57;;;12.47;;
36315;SDS011;22343;50.820;2.666;2023-02-12T14:11:54;24.47;;;17.80;;
36315;SDS011;22343;50.820;2.666;2023-02-12T14:14:40;23.67;;;17.20;;
36315;SDS011;22343;50.820;2.666;2023-02-12T14:20:21;24.93;;;16.67;;
36315;SDS011;22343;50.820;2.666;2023-02-12T14:29:02;19.97;;;13.80;;
36315;SDS011;22343;50.820;2.666;2023-02-12T14:31:49;17.93;;;13.10;;
36315;SDS011;22343;50.820;2.666;2023-02-12T14:37:38;20.57;;;14.17;;
36315;SDS011;22343;50.820;2.666;2023-02-12T14:40:57;18.87;;;13.30;;
36315;SDS011;22343;50.820;2.666;2023-02-12T14:43:36;23.47;;;15.63;;
36315;SDS011;22343;50.820;2.666;2023-02-12T14:46:46;20.60;;;14.50;;
36315;SDS011;22343;50.820;2.666;2023-02-12T14:52:37;25.17;;;19.43;;
36315;SDS011;22343;50.820;2.666;2023-02-12T14:55:28;22.20;;;17.40;;
36315;SDS011;22343;50.820;2.666;2023-02-12T14:58:18;23.47;;;16.70;;
36315;SDS011;22343;50.820;2.666;2023-02-12T15:01:04;24.40;;;18.03;;
36315;SDS011;22343;50.820;2.666;2023-02-12T15:03:50;25.87;;;18.47;;
36315;SDS011;22343;50.820;2.666;2023-02-12T15:06:37;25.70;;;17.50;;
36315;SDS011;22343;50.820;2.666;2023-02-12T15:09:51;27.53;;;20.10;;
36315;SDS011;22343;50.820;2.666;2023-02-12T15:12:47;25.67;;;18.77;;
36315;SDS011;22343;50.820;2.666;2023-02-12T15:15:46;27.77;;;20.77;;
36315;SDS011;22343;50.820;2.666;2023-02-12T15:24:29;26.73;;;19.70;;
36315;SDS011;22343;50.820;2.666;2023-02-12T15:27:14;32.33;;;21.23;;
36315;SDS011;22343;50.820;2.666;2023-02-12T15:30:00;28.67;;;19.80;;
36315;SDS011;22343;50.820;2.666;2023-02-12T15:32:44;27.83;;;20.23;;
36315;SDS011;22343;50.820;2.666;2023-02-12T15:35:31;26.80;;;19.30;;
36315;SDS011;22343;50.820;2.666;2023-02-12T15:38:20;26.13;;;20.07;;
36315;SDS011;22343;50.820;2.666;2023-02-12T15:41:08;26.43;;;19.53;;
36315;SDS011;22343;50.820;2.666;2023-02-12T15:43:52;27.43;;;20.27;;
36315;SDS011;22343;50.820;2.666;2023-02-12T15:46:37;28.77;;;21.07;;
36315;SDS011;22343;50.820;2.666;2023-02-12T15:49:25;26.00;;;18.93;;
36315;SDS011;22343;50.820;2.666;2023-02-12T15:52:18;28.17;;;18.80;;
36315;SDS011;22343;50.820;2.666;2023-02-12T15:55:04;26.83;;;19.33;;
36315;SDS011;22343;50.820;2.666;2023-02-12T15:57:57;31.67;;;21.13;;
36315;SDS011;22343;50.820;2.666;2023-02-12T16:00:43;30.27;;;20.63;;
36315;SDS011;22343;50.820;2.666;2023-02-12T16:03:32;28.30;;;20.30;;
36315;SDS011;22343;50.820;2.666;2023-02-12T16:06:18;28.37;;;21.13;;
36315;SDS011;22343;50.820;2.666;2023-02-12T16:09:05;27.27;;;20.07;;
36315;SDS011;22343;50.820;2.666;2023-02-12T16:11:51;29.73;;;20.40;;
36315;SDS011;22343;50.820;2.666;2023-02-12T16:15:21;32.07;;;22.63;;
36315;SDS011;22343;50.820;2.666;2023-02-12T16:17:47;32.97;;;23.30;;
36315;SDS011;22343;50.820;2.666;2023-02-12T16:20:31;33.57;;;23.17;;
36315;SDS011;22343;50.820;2.666;2023-02-12T16:23:16;36.07;;;25.10;;
36315;SDS011;22343;50.820;2.666;2023-02-12T16:26:02;39.93;;;28.57;;
36315;SDS011;22343;50.820;2.666;2023-02-12T16:28:47;36.47;;;25.93;;
36315;SDS011;22343;50.820;2.666;2023-02-12T16:31:32;35.17;;;24.47;;
36315;SDS011;22343;50.820;2.666;2023-02-12T16:34:27;35.77;;;25.20;;
36315;SDS011;22343;50.820;2.666;2023-02-12T16:37:57;32.57;;;23.63;;
36315;SDS011;22343;50.820;2.666;2023-02-12T16:40:25;37.37;;;24.13;;
36315;SDS011;22343;50.820;2.666;2023-02-12T16:43:20;38.27;;;26.47;;
36315;SDS011;22343;50.820;2.666;2023-02-12T16:46:06;37.47;;;25.97;;
36315;SDS011;22343;50.820;2.666;2023-02-12T16:48:51;38.00;;;26.70;;
36315;SDS011;22343;50.820;2.666;2023-02-12T16:51:37;39.50;;;26.57;;
36315;SDS011;22343;50.820;2.666;2023-02-12T16:54:34;37.97;;;26.90;;
36315;SDS011;22343;50.820;2.666;2023-02-12T16:57:19;42.00;;;27.20;;
36315;SDS011;22343;50.820;2.666;2023-02-12T17:00:04;43.27;;;29.50;;
36315;SDS011;22343;50.820;2.666;2023-02-12T17:02:53;44.47;;;28.53;;
36315;SDS011;22343;50.820;2.666;2023-02-12T17:05:38;43.43;;;30.03;;
36315;SDS011;22343;50.820;2.666;2023-02-12T17:08:23;41.87;;;27.87;;
36315;SDS011;22343;50.820;2.666;2023-02-12T17:11:08;36.23;;;23.60;;
36315;SDS011;22343;50.820;2.666;2023-02-12T17:13:53;41.00;;;27.97;;
36315;SDS011;22343;50.820;2.666;2023-02-12T17:16:38;42.60;;;28.57;;
36315;SDS011;22343;50.820;2.666;2023-02-12T17:19:22;36.80;;;25.33;;
36315;SDS011;22343;50.820;2.666;2023-02-12T17:22:07;109.23;;;74.07;;
36315;SDS011;22343;50.820;2.666;2023-02-12T17:24:56;82.13;;;57.73;;
36315;SDS011;22343;50.820;2.666;2023-02-12T17:27:40;64.27;;;44.20;;
36315;SDS011;22343;50.820;2.666;2023-02-12T17:30:25;94.97;;;63.53;;
36315;SDS011;22343;50.820;2.666;2023-02-12T17:33:11;98.47;;;66.77;;
36315;SDS011;22343;50.820;2.666;2023-02-12T17:35:56;108.53;;;72.50;;
36315;SDS011;22343;50.820;2.666;2023-02-12T17:38:41;60.33;;;40.63;;
36315;SDS011;22343;50.820;2.666;2023-02-12T17:41:26;61.23;;;43.90;;
36315;SDS011;22343;50.820;2.666;2023-02-12T17:44:10;44.03;;;30.00;;
36315;SDS011;22343;50.820;2.666;2023-02-12T17:46:57;47.43;;;32.63;;
36315;SDS011;22343;50.820;2.666;2023-02-12T17:49:41;55.43;;;37.07;;
36315;SDS011;22343;50.820;2.666;2023-02-12T17:52:26;58.17;;;42.33;;
36315;SDS011;22343;50.820;2.666;2023-02-12T17:55:10;49.93;;;35.47;;
36315;SDS011;22343;50.820;2.666;2023-02-12T17:57:57;58.53;;;41.43;;
36315;SDS011;22343;50.820;2.666;2023-02-12T18:00:41;67.80;;;45.73;;
36315;SDS011;22343;50.820;2.666;2023-02-12T18:03:26;59.73;;;45.30;;
36315;SDS011;22343;50.820;2.666;2023-02-12T18:06:10;65.77;;;50.33;;
36315;SDS011;22343;50.820;2.666;2023-02-12T18:08:57;54.60;;;36.73;;
36315;SDS011;22343;50.820;2.666;2023-02-12T18:11:42;61.10;;;41.57;;
36315;SDS011;22343;50.820;2.666;2023-02-12T18:14:27;51.13;;;35.47;;
36315;SDS011;22343;50.820;2.666;2023-02-12T18:17:11;74.10;;;52.80;;
36315;SDS011;22343;50.820;2.666;2023-02-12T18:19:55;48.27;;;31.97;;
36315;SDS011;22343;50.820;2.666;2023-02-12T18:22:40;46.17;;;31.37;;
36315;SDS011;22343;50.820;2.666;2023-02-12T18:25:24;54.77;;;38.07;;
36315;SDS011;22343;50.820;2.666;2023-02-12T18:28:09;56.53;;;38.67;;
36315;SDS011;22343;50.820;2.666;2023-02-12T18:30:55;46.90;;;34.43;;
36315;SDS011;22343;50.820;2.666;2023-02-12T18:33:40;62.60;;;43.27;;
36315;SDS011;22343;50.820;2.666;2023-02-12T18:36:24;47.33;;;30.83;;
36315;SDS011;22343;50.820;2.666;2023-02-12T18:39:09;49.37;;;32.97;;
36315;SDS011;22343;50.820;2.666;2023-02-12T18:41:54;42.60;;;27.63;;
36315;SDS011;22343;50.820;2.666;2023-02-12T18:44:38;42.43;;;28.47;;
36315;SDS011;22343;50.820;2.666;2023-02-12T18:47:23;47.97;;;32.10;;
36315;SDS011;22343;50.820;2.666;2023-02-12T18:50:08;41.80;;;29.30;;
36315;SDS011;22343;50.820;2.666;2023-02-12T18:52:52;41.53;;;26.80;;
36315;SDS011;22343;50.820;2.666;2023-02-12T18:55:38;45.83;;;32.80;;
36315;SDS011;22343;50.820;2.666;2023-02-12T18:58:23;45.63;;;29.63;;
36315;SDS011;22343;50.820;2.666;2023-02-12T19:01:13;33.90;;;23.07;;
36315;SDS011;22343;50.820;2.666;2023-02-12T19:04:02;36.27;;;23.63;;
36315;SDS011;22343;50.820;2.666;2023-02-12T19:06:51;47.57;;;31.63;;
36315;SDS011;22343;50.820;2.666;2023-02-12T19:09:37;55.50;;;40.43;;
36315;SDS011;22343;50.820;2.666;2023-02-12T19:12:22;39.60;;;25.43;;
36315;SDS011;22343;50.820;2.666;2023-02-12T19:15:10;35.87;;;23.03;;
36315;SDS011;22343;50.820;2.666;2023-02-12T19:17:56;34.17;;;22.90;;
36315;SDS011;22343;50.820;2.666;2023-02-12T19:20:42;38.50;;;26.10;;
36315;SDS011;22343;50.820;2.666;2023-02-12T19:23:28;40.10;;;26.10;;